createdAt,value
2022-11-07T00:02:26.285Z,3.58
2022-11-07T00:06:08.217Z,3.30
2022-11-07T00:09:49.965Z,3.20
2022-11-07T00:13:31.951Z,2.60
2022-11-07T00:17:13.660Z,3.28
2022-11-07T00:20:55.783Z,3.45
2022-11-07T00:24:37.474Z,2.03
2022-11-07T00:28:19.306Z,2.60
2022-11-07T00:32:02.097Z,2.72
2022-11-07T00:35:43.824Z,2.50
2022-11-07T00:39:25.498Z,2.63
2022-11-07T00:43:07.184Z,2.95
2022-11-07T00:46:48.847Z,2.60
2022-11-07T00:50:31.372Z,3.17
2022-11-07T00:54:13.205Z,2.42
2022-11-07T00:57:55.729Z,2.90
2022-11-07T01:01:37.777Z,3.00
2022-11-07T01:05:19.528Z,2.58
2022-11-07T01:09:01.305Z,3.20
2022-11-07T01:12:44.135Z,1.95
2022-11-07T01:16:25.988Z,2.63
2022-11-07T01:20:08.306Z,1.95
2022-11-07T01:23:51.013Z,2.67
2022-11-07T01:27:32.697Z,2.78
2022-11-07T01:31:15.329Z,2.97
2022-11-07T01:34:57.261Z,3.08
2022-11-07T01:38:39.887Z,2.47
2022-11-07T01:42:22.036Z,2.90
2022-11-07T01:46:03.752Z,2.83
2022-11-07T01:49:45.456Z,3.83
2022-11-07T01:53:27.256Z,3.63
2022-11-07T01:57:12.161Z,3.17
2022-11-07T02:00:53.933Z,3.50
2022-11-07T02:04:35.661Z,3.45
2022-11-07T02:08:17.410Z,3.90
2022-11-07T02:12:01.181Z,4.00
2022-11-07T02:15:42.915Z,4.07
2022-11-07T02:19:26.940Z,3.78
2022-11-07T02:23:15.465Z,3.83
2022-11-07T02:26:57.565Z,4.18
2022-11-07T02:30:39.309Z,5.20
2022-11-07T02:34:20.973Z,4.40
2022-11-07T02:38:04.328Z,3.40
2022-11-07T02:41:47.332Z,4.90
2022-11-07T02:45:31.129Z,4.33
2022-11-07T02:49:12.791Z,4.80
2022-11-07T02:52:54.512Z,4.53
2022-11-07T02:56:36.193Z,4.72
2022-11-07T03:00:18.000Z,5.32
2022-11-07T03:03:59.904Z,5.35
2022-11-07T03:07:42.965Z,5.38
2022-11-07T03:11:24.776Z,3.92
2022-11-07T03:15:07.298Z,4.43
2022-11-07T03:18:49.105Z,5.95
2022-11-07T03:22:32.031Z,4.60
2022-11-07T03:26:13.769Z,3.90
2022-11-07T03:29:55.520Z,4.88
2022-11-07T03:33:37.529Z,5.22
2022-11-07T03:37:19.225Z,4.55
2022-11-07T03:41:02.257Z,4.93
2022-11-07T03:44:43.921Z,3.97
2022-11-07T03:48:25.627Z,4.43
2022-11-07T03:52:07.732Z,5.30
2022-11-07T03:55:49.399Z,3.95
2022-11-07T03:59:31.077Z,4.40
2022-11-07T04:03:13.315Z,4.38
2022-11-07T04:06:55.182Z,3.55
2022-11-07T04:10:36.909Z,5.13
2022-11-07T04:14:56.025Z,4.10
2022-11-07T04:18:37.700Z,4.40
2022-11-07T04:22:19.500Z,4.35
2022-11-07T04:26:19.889Z,4.75
2022-11-07T04:30:18.981Z,3.92
2022-11-07T04:34:01.169Z,3.42
2022-11-07T04:37:42.936Z,3.92
2022-11-07T04:41:24.760Z,3.60
2022-11-07T04:45:07.159Z,3.95
2022-11-07T04:48:48.829Z,4.63
2022-11-07T04:52:31.716Z,4.03
2022-11-07T04:56:13.377Z,4.67
2022-11-07T04:59:55.094Z,4.50
2022-11-07T05:03:41.843Z,4.47
2022-11-07T05:07:23.827Z,4.75
2022-11-07T05:11:05.732Z,4.55
2022-11-07T05:14:47.401Z,5.07
2022-11-07T05:18:29.071Z,4.63
2022-11-07T05:22:29.663Z,4.47
2022-11-07T05:26:11.333Z,3.47
2022-11-07T05:29:53.004Z,4.95
2022-11-07T05:33:35.530Z,4.35
2022-11-07T05:37:17.373Z,3.72
2022-11-07T05:41:03.384Z,4.45
2022-11-07T05:44:45.065Z,4.22
2022-11-07T05:48:26.795Z,5.22
2022-11-07T05:52:09.707Z,4.18
2022-11-07T05:55:54.633Z,4.30
2022-11-07T05:59:36.640Z,3.92
2022-11-07T06:03:20.330Z,3.28
2022-11-07T06:07:02.427Z,3.50
2022-11-07T06:10:44.159Z,3.95
2022-11-07T06:14:25.890Z,3.70
2022-11-07T06:18:11.416Z,3.50
2022-11-07T06:21:53.359Z,4.45
2022-11-07T06:25:35.450Z,3.90
2022-11-07T06:29:17.210Z,3.80
2022-11-07T06:33:07.629Z,4.80
2022-11-07T06:37:02.661Z,3.97
2022-11-07T06:40:44.776Z,3.53
2022-11-07T06:44:26.499Z,4.90
2022-11-07T06:48:08.469Z,3.42
2022-11-07T06:51:50.477Z,4.50
2022-11-07T06:55:33.948Z,3.65
2022-11-07T06:59:15.624Z,4.65
2022-11-07T07:02:59.237Z,3.90
2022-11-07T07:06:41.093Z,3.78
2022-11-07T07:10:24.822Z,3.95
2022-11-07T07:17:53.513Z,4.32
2022-11-07T07:21:35.382Z,3.70
2022-11-07T07:25:17.087Z,3.90
2022-11-07T07:28:58.754Z,3.40
2022-11-07T07:32:41.714Z,3.10
2022-11-07T07:36:23.486Z,3.70
2022-11-07T07:40:05.574Z,3.80
2022-11-07T07:43:47.443Z,3.90
2022-11-07T07:47:29.105Z,4.68
2022-11-07T07:51:11.884Z,3.40
2022-11-07T07:54:54.332Z,4.27
2022-11-07T07:58:36.098Z,4.18
2022-11-07T08:02:18.122Z,5.60
2022-11-07T08:05:59.875Z,4.40
2022-11-07T08:09:41.543Z,3.80
2022-11-07T08:13:24.868Z,3.08
2022-11-07T08:17:06.535Z,3.13
2022-11-07T08:20:52.044Z,3.15
2022-11-07T08:24:33.716Z,3.78
2022-11-07T08:28:15.380Z,4.10
2022-11-07T08:31:57.713Z,3.90
2022-11-07T08:35:42.461Z,5.30
2022-11-07T08:39:24.276Z,4.32
2022-11-07T08:43:06.024Z,3.47
2022-11-07T08:46:47.700Z,2.92
2022-11-07T08:50:29.469Z,3.22
2022-11-07T08:54:14.191Z,3.10
2022-11-07T08:58:03.001Z,3.33
2022-11-07T09:02:15.456Z,3.40
2022-11-07T09:05:48.973Z,4.10
2022-11-07T09:09:30.639Z,3.67
2022-11-07T09:13:14.699Z,3.30
2022-11-07T09:16:58.000Z,3.30
2022-11-07T09:20:39.663Z,4.00
2022-11-07T09:24:21.397Z,3.78
2022-11-07T09:28:03.419Z,3.38
2022-11-07T09:31:45.117Z,4.20
2022-11-07T09:35:26.817Z,4.53
2022-11-07T09:39:08.695Z,3.88
2022-11-07T09:43:15.390Z,4.18
2022-11-07T09:47:11.185Z,4.07
2022-11-07T09:50:52.906Z,4.00
2022-11-07T09:54:37.718Z,3.65
2022-11-07T09:58:36.614Z,3.85
2022-11-07T10:02:21.162Z,4.32
2022-11-07T10:06:02.918Z,3.78
2022-11-07T10:09:55.069Z,3.97
2022-11-07T10:14:00.852Z,3.90
2022-11-07T10:17:49.821Z,3.50
2022-11-07T10:22:01.004Z,3.67
2022-11-07T10:25:48.648Z,3.65
2022-11-07T10:29:44.753Z,3.60
2022-11-07T10:33:43.814Z,3.22
2022-11-07T10:37:25.476Z,3.78
2022-11-07T10:41:28.648Z,2.72
2022-11-07T10:45:17.448Z,3.20
2022-11-07T10:49:00.926Z,2.47
2022-11-07T10:52:44.115Z,2.33
2022-11-07T10:56:25.776Z,3.63
2022-11-07T11:00:22.398Z,3.78
2022-11-07T11:04:23.996Z,3.15
2022-11-07T11:08:16.178Z,2.78
2022-11-07T11:12:03.817Z,3.08
2022-11-07T11:15:45.764Z,2.83
2022-11-07T11:19:31.109Z,3.15
2022-11-07T11:23:35.163Z,3.60
2022-11-07T11:31:05.658Z,4.10
2022-11-07T11:35:06.090Z,3.72
2022-11-07T11:38:54.228Z,4.03
2022-11-07T11:42:57.605Z,4.85
2022-11-07T11:46:49.704Z,5.15
2022-11-07T11:50:47.703Z,4.90
2022-11-07T11:54:29.373Z,5.82
2022-11-07T11:58:25.132Z,5.40
2022-11-07T12:02:44.637Z,6.18
2022-11-07T12:06:39.350Z,5.07
2022-11-07T12:10:40.265Z,4.80
2022-11-07T12:14:39.845Z,5.53
2022-11-07T12:18:45.519Z,5.70
2022-11-07T12:22:47.985Z,5.35
2022-11-07T12:26:35.015Z,4.60
2022-11-07T12:30:24.272Z,4.70
2022-11-07T12:34:07.125Z,4.43
2022-11-07T12:38:15.019Z,4.87
2022-11-07T12:41:58.581Z,5.53
2022-11-07T12:49:49.305Z,6.10
2022-11-07T12:53:44.294Z,5.70
2022-11-07T12:57:27.798Z,5.40
2022-11-07T13:01:14.341Z,6.72
2022-11-07T13:05:19.164Z,6.88
2022-11-07T13:09:13.666Z,6.80
2022-11-07T13:13:08.256Z,6.55
2022-11-07T13:17:27.798Z,6.95
2022-11-07T13:21:09.868Z,6.82
2022-11-07T13:24:55.608Z,7.18
2022-11-07T13:28:44.642Z,7.00
2022-11-07T13:32:26.601Z,6.68
2022-11-07T13:36:13.646Z,6.65
2022-11-07T13:39:59.630Z,7.00
2022-11-07T13:43:56.792Z,7.10
2022-11-07T13:47:39.850Z,8.02
2022-11-07T13:51:35.500Z,7.13
2022-11-07T13:55:22.342Z,6.55
2022-11-07T13:59:05.242Z,6.22
2022-11-07T14:02:52.518Z,6.43
2022-11-07T14:06:34.302Z,6.80
2022-11-07T14:10:18.749Z,6.78
2022-11-07T14:14:02.635Z,6.30
2022-11-07T14:17:44.309Z,6.75
2022-11-07T14:21:31.021Z,6.47
2022-11-07T14:25:41.030Z,6.80
2022-11-07T14:29:22.922Z,6.95
2022-11-07T14:33:05.837Z,6.25
2022-11-07T14:36:52.470Z,6.18
2022-11-07T14:40:34.350Z,6.10
2022-11-07T14:44:19.261Z,6.07
2022-11-07T14:48:00.985Z,6.43
2022-11-07T14:51:42.751Z,6.03
2022-11-07T14:55:31.882Z,5.43
2022-11-07T14:59:15.070Z,7.22
2022-11-07T15:02:57.973Z,5.25
2022-11-07T15:06:44.043Z,5.88
2022-11-07T15:10:33.066Z,6.13
2022-11-07T15:14:30.178Z,5.50
2022-11-07T15:18:30.199Z,5.65
2022-11-07T15:22:43.544Z,5.50
2022-11-07T15:26:31.962Z,6.33
2022-11-07T15:30:32.813Z,10.07
2022-11-07T15:34:29.058Z,6.28
2022-11-07T15:38:22.785Z,6.72
2022-11-07T15:42:04.783Z,5.47
2022-11-07T15:45:50.409Z,5.35
2022-11-07T15:49:33.946Z,5.68
2022-11-07T15:53:23.131Z,5.70
2022-11-07T15:57:05.567Z,5.72
2022-11-07T16:00:47.242Z,6.30
2022-11-07T16:04:29.464Z,5.07
2022-11-07T16:08:16.005Z,4.88
2022-11-07T16:11:58.189Z,5.35
2022-11-07T16:15:40.609Z,5.68
2022-11-07T16:19:24.736Z,6.18
2022-11-07T16:23:06.655Z,4.80
2022-11-07T16:26:48.684Z,5.65
2022-11-07T16:30:30.395Z,5.45
2022-11-07T16:34:13.283Z,5.97
2022-11-07T16:37:55.068Z,4.80
2022-11-07T16:41:38.096Z,5.53
2022-11-07T16:45:22.302Z,5.93
2022-11-07T16:49:16.688Z,4.57
2022-11-07T16:52:59.484Z,5.25
2022-11-07T16:56:41.758Z,5.10
2022-11-07T17:00:23.690Z,4.50
2022-11-07T17:04:06.247Z,4.95
2022-11-07T17:07:49.395Z,8.38
2022-11-07T17:11:31.450Z,4.90
2022-11-07T17:15:13.177Z,4.70
2022-11-07T17:18:55.149Z,4.93
2022-11-07T17:22:36.978Z,4.85
2022-11-07T17:26:21.054Z,4.22
2022-11-07T17:30:08.189Z,4.53
2022-11-07T17:33:50.636Z,5.70
2022-11-07T17:37:32.325Z,4.60
2022-11-07T17:41:18.096Z,4.90
2022-11-07T17:44:59.781Z,4.28
2022-11-07T17:48:47.059Z,3.83
2022-11-07T17:52:30.404Z,3.80
2022-11-07T17:56:16.584Z,4.07
2022-11-07T17:59:58.264Z,4.25
2022-11-07T18:03:40.117Z,3.28
2022-11-07T18:07:23.334Z,4.22
2022-11-07T18:11:05.842Z,5.32
2022-11-07T18:14:47.555Z,4.88
2022-11-07T18:18:29.270Z,3.85
2022-11-07T18:22:11.265Z,4.28
2022-11-07T18:26:06.793Z,4.38
2022-11-07T18:29:49.381Z,3.67
2022-11-07T18:33:32.367Z,3.53
2022-11-07T18:37:14.086Z,3.75
2022-11-07T18:41:06.460Z,3.50
2022-11-07T18:44:48.141Z,3.92
2022-11-07T18:48:29.989Z,3.50
2022-11-07T18:52:11.886Z,4.13
2022-11-07T18:56:00.265Z,3.55
2022-11-07T18:59:41.938Z,3.55
2022-11-07T19:03:25.811Z,3.60
2022-11-07T19:07:07.498Z,5.38
2022-11-07T19:10:49.497Z,4.68
2022-11-07T19:14:31.437Z,3.97
2022-11-07T19:18:13.271Z,3.78
2022-11-07T19:21:55.101Z,3.55
2022-11-07T19:25:41.505Z,3.83
2022-11-07T19:29:23.637Z,3.47
2022-11-07T19:33:08.068Z,3.13
2022-11-07T19:36:49.824Z,3.90
2022-11-07T19:40:31.653Z,3.80
2022-11-07T19:44:13.599Z,5.20
2022-11-07T19:47:55.290Z,3.00
2022-11-07T19:51:37.361Z,2.72
2022-11-07T19:55:19.123Z,2.88
2022-11-07T19:59:03.880Z,3.10
2022-11-07T20:02:48.810Z,3.42
2022-11-07T20:06:35.549Z,3.88
2022-11-07T20:10:17.418Z,3.80
2022-11-07T20:14:03.348Z,4.50
2022-11-07T20:17:45.489Z,3.97
2022-11-07T20:21:30.293Z,4.30
2022-11-07T20:25:12.233Z,3.53
2022-11-07T20:28:54.127Z,3.70
2022-11-07T20:32:36.060Z,3.28
2022-11-07T20:36:18.051Z,4.05
2022-11-07T20:39:59.733Z,4.13
2022-11-07T20:43:43.896Z,3.70
2022-11-07T20:47:25.737Z,3.35
2022-11-07T20:51:15.829Z,3.40
2022-11-07T20:54:57.665Z,3.55
2022-11-07T20:58:41.807Z,3.53
2022-11-07T21:02:24.741Z,4.05
2022-11-07T21:06:11.271Z,3.17
2022-11-07T21:09:53.033Z,3.97
2022-11-07T21:13:36.233Z,4.47
2022-11-07T21:17:17.973Z,3.88
2022-11-07T21:21:16.508Z,4.47
2022-11-07T21:24:58.565Z,4.07
2022-11-07T21:28:40.424Z,4.28
2022-11-07T21:32:22.164Z,4.07
2022-11-07T21:36:11.272Z,3.80
2022-11-07T21:39:53.137Z,3.97
2022-11-07T21:43:34.927Z,3.58
2022-11-07T21:47:16.685Z,3.08
2022-11-07T21:50:58.523Z,3.53
2022-11-07T21:54:40.225Z,3.08
2022-11-07T21:58:21.910Z,3.35
2022-11-07T22:02:05.859Z,4.50
2022-11-07T22:05:47.553Z,3.83
2022-11-07T22:09:29.301Z,3.65
2022-11-07T22:13:11.292Z,3.47
2022-11-07T22:16:53.054Z,4.00
2022-11-07T22:20:34.762Z,4.03
2022-11-07T22:24:17.558Z,3.13
2022-11-07T22:28:00.672Z,3.35
2022-11-07T22:31:42.694Z,3.50
2022-11-07T22:35:24.649Z,2.80
2022-11-07T22:39:06.327Z,3.75
2022-11-07T22:42:48.139Z,3.30
2022-11-07T22:46:30.275Z,3.45
2022-11-07T22:50:11.974Z,3.30
2022-11-07T22:54:02.158Z,3.97
2022-11-07T22:57:44.061Z,3.92
2022-11-07T23:01:30.030Z,3.30
2022-11-07T23:05:11.917Z,3.05
2022-11-07T23:08:53.740Z,3.65
2022-11-07T23:12:35.802Z,3.05
2022-11-07T23:16:32.967Z,2.88
2022-11-07T23:20:34.770Z,3.38
2022-11-07T23:24:16.660Z,3.50
2022-11-07T23:27:58.361Z,3.28
2022-11-07T23:31:40.952Z,3.22
2022-11-07T23:35:22.608Z,3.40
2022-11-07T23:39:08.082Z,4.03
2022-11-07T23:42:50.909Z,3.72
2022-11-07T23:46:51.262Z,3.60
2022-11-07T23:50:51.809Z,3.35
2022-11-07T23:54:52.018Z,3.40
2022-11-07T23:58:52.020Z,3.08
